Huachuca City, AZ (85616)

03:51 AM MST del 19 Dicembre 2014 (GMT -0700)
Lower Huachuca City | Change Station
CLOSE
Current Station
Stazione meteo personale
Location: Huachuca City, AZ
Altitudine: 4251 ft
Stazioni meteo nelle vicinanze

Alt. 4251 ft 31.64 °N, 110.34 °W | Updated 15 seconds ago

Sereno
Sereno
28.1 °F
Sembra 28 °F
N
2.5
Vento Variabile Vento da OSO
Gusts 4.5 mph

Oggi
Massima -- | Minima -- °F
--% Possibilità di precip.
Ieri
Massima -- | Minima -- °F
Precip. -- in
7:15 AM 5:20 PM
Luna calante, 8% visible
Pressione 30.17 in
Visibilità 10.0 miglia
Nuvole Sereno
Raffreddamento del vento 28 °F
Punto di rugiada 25 °F
Umidità 88%
Piovosità 0.00 in
Spessore del manto nevoso Non disponibile.
Raggi UV 0 fuori da 12
Polline 4.20 fuori da 12
Qualità dell'aria Non disponibile.
Flu Activity Non disponibile.
METAR KFHU 190955Z 18004KT 10SM CLR 01/M01 A3016 RMK SLP214

More Conditions Fewer Conditions

Pressione 30.17 in
Visibilità 10.0 miglia
Nuvole Sereno
Raffreddamento del vento 28 °F
Punto di rugiada 25 °F
Umidità 88%
Piovosità 0.00 in
Spessore del manto nevoso Non disponibile.
Raggi UV 0 fuori da 12
Polline 4.20 fuori da 12
Qualità dell'aria Non disponibile.
Flu Activity Non disponibile.
METAR KFHU 190955Z 18004KT 10SM CLR 01/M01 A3016 RMK SLP214

More Conditions Fewer Conditions

10-Day Weather Forecast

Almanac

Astronomia

Dec. 19, 2014 Alba Tramonto
Ora attuale
Crepuscolo civile
Crepuscolo nautico
Crepuscolo astronomico
Luna
Estensione della luce visibile
Lunghezza del giorno
Tomorrow will be .
, % of the Moon is Illuminated

Gli estremi di oggi

State Highs State Lows

Community

WunderPhotos

Upload Photos

1,778,966 foto caricate!

WunderBlogs® & News

Nearby

Qualità dell'aria

  Qualità dell'aria Indice AQ Inquinante
Not available.

Profondità neve

Stazione Profondità Altitudine

Attività sismica

Città  Distanza Mag. Data & Ora
Minimo Magnitudo Mostrato è 2.5.

Temperature delle acque costiere

Località Temperatura

Stazioni meteo nelle vicinanze